Time;durP1;ratioP1;P1;durP2;ratioP2;P2;SDS_P1;SDS_P2;PMS_P1;PMS_P2;Temp;Humidity;BMP_temperature;BMP_pressure;BME280_temperature;BME280_humidity;BME280_pressure;Samples;Min_cycle;Max_cycle;Signal;HPM_P1;HPM_P2
2022/11/21 00:00:56;;;;;;;4.47;2.65;;;;;;;9.38;83.24;93542.75;5125355;27;20038;-74
2022/11/21 00:03:23;;;;;;;4.28;2.42;;;;;;;9.60;82.61;93535.44;5102566;28;20028;-74
2022/11/21 00:05:48;;;;;;;3.42;2.50;;;;;;;9.77;81.63;93529.41;5088707;28;20028;-74
2022/11/21 00:08:16;;;;;;;5.40;2.85;;;;;;;9.84;81.52;93527.03;5088745;28;20542;-74
2022/11/21 00:10:42;;;;;;;6.45;2.70;;;;;;;9.83;81.61;93533.16;5072208;28;20078;-74
2022/11/21 00:13:11;;;;;;;7.00;2.90;;;;;;;9.93;81.41;93535.66;5072036;28;20053;-74
2022/11/21 00:15:36;;;;;;;4.38;2.40;;;;;;;10.05;81.09;93527.44;5089659;28;20428;-75
2022/11/21 00:18:02;;;;;;;7.70;2.50;;;;;;;9.99;81.38;93514.28;5090238;28;20040;-74
2022/11/21 00:20:28;;;;;;;4.10;1.92;;;;;;;9.81;81.68;93512.56;5073557;28;20038;-74
2022/11/21 00:22:53;;;;;;;4.25;1.73;;;;;;;9.95;81.54;93523.34;5090372;28;20429;-74
2022/11/21 00:25:18;;;;;;;3.28;1.90;;;;;;;9.85;81.40;93485.34;5090246;28;20039;-74
2022/11/21 00:27:44;;;;;;;5.10;2.15;;;;;;;9.97;81.38;93500.63;5090284;28;20043;-74
2022/11/21 00:30:10;;;;;;;4.80;2.28;;;;;;;9.98;81.50;93477.16;5073212;28;20093;-74
2022/11/21 00:32:35;;;;;;;3.38;1.92;;;;;;;9.76;82.58;93470.72;5073405;28;20035;-74
2022/11/21 00:35:01;;;;;;;3.42;1.75;;;;;;;9.88;82.47;93460.06;5090223;28;20032;-74
2022/11/21 00:37:26;;;;;;;4.20;1.90;;;;;;;9.91;82.28;93476.13;5090140;28;20136;-74
2022/11/21 00:39:51;;;;;;;3.35;1.90;;;;;;;10.02;82.10;93457.69;5091228;28;20512;-74
2022/11/21 00:42:17;;;;;;;5.45;1.75;;;;;;;9.78;82.66;93455.84;5073118;28;20031;-74
2022/11/21 00:44:42;;;;;;;3.70;1.67;;;;;;;9.87;82.41;93467.06;5089910;28;20024;-74
2022/11/21 00:47:08;;;;;;;3.90;2.00;;;;;;;9.98;82.04;93465.97;5090094;28;20020;-73
2022/11/21 00:49:33;;;;;;;4.25;2.30;;;;;;;9.99;82.02;93462.41;5091073;28;20485;-74
2022/11/21 00:51:59;;;;;;;4.60;2.40;;;;;;;10.09;81.84;93478.66;5089985;28;20032;-74
2022/11/21 00:54:24;;;;;;;3.85;2.30;;;;;;;10.17;81.97;93491.66;5073253;28;20066;-74
2022/11/21 00:56:50;;;;;;;4.32;2.30;;;;;;;10.11;81.87;93481.06;5097621;28;20073;-74
2022/11/21 00:59:15;;;;;;;3.47;2.03;;;;;;;10.03;82.24;93454.16;5094095;28;20146;-74
2022/11/21 01:01:40;;;;;;;3.63;2.00;;;;;;;9.92;82.17;93443.22;5089852;28;20028;-74
2022/11/21 01:04:06;;;;;;;3.58;1.35;;;;;;;10.02;81.55;93436.94;5073064;28;20478;-74
2022/11/21 01:06:31;;;;;;;4.00;1.00;;;;;;;10.07;81.49;93413.13;5089893;28;20387;-74
2022/11/21 01:08:57;;;;;;;4.25;1.40;;;;;;;10.10;81.06;93397.25;5091291;28;20037;-74
2022/11/21 01:11:22;;;;;;;3.47;1.75;;;;;;;10.15;81.11;93420.94;5073045;28;20044;-74
2022/11/21 01:13:48;;;;;;;5.55;2.20;;;;;;;10.15;80.82;93407.97;5101831;28;20533;-74
2022/11/21 01:16:14;;;;;;;4.65;2.70;;;;;;;10.08;80.64;93404.38;5075025;28;20085;-75
2022/11/21 01:18:40;;;;;;;5.75;2.45;;;;;;;9.79;81.06;93394.41;5092793;28;20437;-74
2022/11/21 01:21:26;;;;;;;3.38;1.80;;;;;;;10.01;80.85;93411.97;5092970;28;20019;-73
2022/11/21 01:23:52;;;;;;;3.22;1.25;;;;;;;10.04;80.73;93413.44;5109606;28;20126;-75
2022/11/21 01:26:20;;;;;;;5.13;1.40;;;;;;;10.07;80.62;93418.31;5092847;28;20515;-74
2022/11/21 01:28:46;;;;;;;3.88;1.52;;;;;;;10.14;80.22;93419.31;5093178;28;20031;-74
2022/11/21 01:31:24;;;;;;;3.22;1.13;;;;;;;10.18;80.07;93419.81;5092936;28;20512;-74
2022/11/21 01:33:50;;;;;;;3.00;1.67;;;;;;;10.22;79.94;93411.56;5090296;28;20420;-74
2022/11/21 01:36:19;;;;;;;3.40;1.65;;;;;;;10.16;79.65;93398.38;5089472;28;20048;-74
2022/11/21 01:38:47;;;;;;;4.53;1.90;;;;;;;10.25;79.20;93411.25;5089411;28;20036;-74
2022/11/21 01:41:14;;;;;;;2.35;1.30;;;;;;;10.31;78.92;93404.63;5072810;28;20039;-74
2022/11/21 01:43:39;;;;;;;2.78;1.30;;;;;;;10.32;78.50;93411.44;5072718;28;20040;-74
2022/11/21 01:46:08;;;;;;;3.55;1.52;;;;;;;10.00;79.08;93412.13;5072622;28;20024;-74
2022/11/21 01:48:36;;;;;;;4.20;1.30;;;;;;;9.68;79.66;93408.44;5089177;28;20493;-74
2022/11/21 01:51:07;;;;;;;3.05;1.40;;;;;;;9.72;79.93;93401.16;5089276;28;20508;-74
2022/11/21 01:53:33;;;;;;;3.25;1.40;;;;;;;9.55;80.44;93410.66;5089444;28;20038;-74
2022/11/21 01:55:58;;;;;;;5.10;1.30;;;;;;;9.53;80.13;93399.66;5072355;28;20063;-74
2022/11/21 01:58:24;;;;;;;4.57;1.17;;;;;;;9.50;80.00;93415.47;5055556;28;20040;-74
2022/11/21 02:00:49;;;;;;;2.67;0.95;;;;;;;9.39;80.61;93417.38;5072294;28;20024;-74
2022/11/21 02:03:16;;;;;;;6.40;1.50;;;;;;;9.54;80.52;93432.38;5089299;28;20032;-75
2022/11/21 02:05:42;;;;;;;5.75;1.70;;;;;;;9.58;80.70;93415.53;5072503;28;20020;-74
2022/11/21 02:08:18;;;;;;;3.50;1.40;;;;;;;9.64;80.29;93417.53;5060441;28;20031;-74
2022/11/21 02:10:49;;;;;;;2.67;0.85;;;;;;;9.56;80.17;93414.88;5081914;28;20298;-74
2022/11/21 02:13:14;;;;;;;1.10;0.65;;;;;;;9.61;80.16;93420.41;5096700;28;20036;-74
2022/11/21 02:15:40;;;;;;;2.55;0.70;;;;;;;9.70;79.59;93431.66;5096309;28;20043;-73
2022/11/21 02:18:08;;;;;;;2.10;0.70;;;;;;;9.79;79.42;93426.31;5095969;28;20039;-74
2022/11/21 02:20:33;;;;;;;1.60;0.60;;;;;;;9.88;79.46;93432.34;5095561;28;20023;-74
2022/11/21 02:23:13;;;;;;;2.63;0.77;;;;;;;9.76;79.08;93424.03;5079063;28;20512;-73
2022/11/21 02:25:40;;;;;;;3.20;0.88;;;;;;;9.82;79.40;93420.00;5079829;28;20114;-74
2022/11/21 02:28:11;;;;;;;3.97;0.80;;;;;;;9.85;77.94;93425.69;5094186;28;20082;-74
2022/11/21 02:30:38;;;;;;;3.47;1.00;;;;;;;10.02;78.56;93441.31;5075933;28;20035;-74
2022/11/21 02:33:03;;;;;;;2.88;1.05;;;;;;;10.14;79.49;93419.31;5058798;28;20043;-74
2022/11/21 02:35:29;;;;;;;3.13;1.70;;;;;;;10.24;79.34;93413.97;5092430;28;20232;-73
2022/11/21 02:38:01;;;;;;;3.80;0.90;;;;;;;9.88;80.64;93409.00;5101418;28;20035;-73
2022/11/21 02:40:28;;;;;;;2.47;1.05;;;;;;;9.88;80.73;93408.19;5112828;28;20494;-75
2022/11/21 02:43:29;;;;;;;4.18;1.20;;;;;;;9.77;80.36;93366.00;5095893;28;20040;-74
2022/11/21 02:45:55;;;;;;;2.65;1.20;;;;;;;9.83;79.92;93409.50;5085720;28;20036;-74
2022/11/21 02:48:20;;;;;;;3.55;1.30;;;;;;;9.67;80.68;93401.66;5093171;28;20562;-74
2022/11/21 02:50:46;;;;;;;3.55;0.90;;;;;;;9.76;79.93;93381.75;5092090;28;20437;-74
2022/11/21 02:53:13;;;;;;;2.45;0.98;;;;;;;9.61;80.18;93365.94;5092196;28;20395;-73
2022/11/21 02:55:38;;;;;;;5.70;1.13;;;;;;;9.78;79.06;93359.88;5063036;28;20031;-74
2022/11/21 02:58:04;;;;;;;4.30;1.10;;;;;;;9.77;78.44;93354.84;5078421;28;20497;-74
2022/11/21 03:00:30;;;;;;;2.75;1.00;;;;;;;9.69;78.82;93329.69;5112429;28;20398;-73
2022/11/21 03:02:55;;;;;;;5.13;0.90;;;;;;;10.02;78.13;93358.31;5112372;28;20477;-74
2022/11/21 03:05:20;;;;;;;3.50;0.90;;;;;;;10.12;76.98;93353.00;5094711;28;20027;-74
2022/11/21 03:07:46;;;;;;;4.43;1.00;;;;;;;10.24;75.31;93342.13;5112172;28;20036;-74
2022/11/21 03:10:12;;;;;;;4.80;1.00;;;;;;;10.32;75.75;93354.34;5078294;28;20028;-74
2022/11/21 03:12:38;;;;;;;4.72;0.90;;;;;;;10.27;77.19;93361.78;5095278;28;20437;-74
2022/11/21 03:15:04;;;;;;;2.42;1.00;;;;;;;10.31;77.47;93362.28;5095945;28;20024;-74
2022/11/21 03:17:30;;;;;;;4.07;1.23;;;;;;;10.26;77.82;93366.13;5091614;28;20040;-74
2022/11/21 03:19:55;;;;;;;3.03;0.75;;;;;;;10.36;75.91;93354.81;5091544;28;20025;-74
2022/11/21 03:22:21;;;;;;;3.20;0.90;;;;;;;10.37;76.17;93357.25;5092659;28;20410;-73
2022/11/21 03:24:46;;;;;;;5.05;0.90;;;;;;;10.42;76.01;93344.63;5092673;28;20402;-74
2022/11/21 03:27:12;;;;;;;2.40;0.80;;;;;;;10.50;74.45;93351.56;5091445;28;20024;-73
2022/11/21 03:29:37;;;;;;;4.00;1.05;;;;;;;10.66;74.97;93366.34;5092576;28;20513;-74
2022/11/21 03:32:03;;;;;;;5.60;1.27;;;;;;;10.76;75.90;93363.59;5092570;28;20024;-74
2022/11/21 03:34:28;;;;;;;4.15;0.95;;;;;;;10.79;75.92;93356.28;5092956;28;20047;-74
2022/11/21 03:36:54;;;;;;;6.15;1.15;;;;;;;10.49;75.64;93349.97;5092811;28;20382;-74
2022/11/21 03:39:19;;;;;;;7.13;0.90;;;;;;;10.44;75.92;93353.03;5091346;28;20042;-73
2022/11/21 03:41:45;;;;;;;2.42;0.90;;;;;;;10.66;75.75;93355.97;5074221;28;20028;-74
2022/11/21 03:44:10;;;;;;;3.70;0.98;;;;;;;10.58;73.81;93350.78;5091294;28;20102;-74
2022/11/21 03:46:40;;;;;;;6.35;1.17;;;;;;;10.60;72.37;93341.84;5091372;28;20023;-74
2022/11/21 03:49:06;;;;;;;3.53;0.90;;;;;;;10.84;73.96;93345.41;5074914;28;20122;-74
2022/11/21 03:51:32;;;;;;;2.80;0.85;;;;;;;10.88;74.57;93352.69;5090999;28;20024;-74
2022/11/21 03:53:57;;;;;;;4.50;0.77;;;;;;;10.94;75.17;93346.03;5074148;28;20040;-74
2022/11/21 03:56:23;;;;;;;2.00;0.70;;;;;;;10.94;75.63;93340.84;5090906;28;20028;-73
2022/11/21 03:58:48;;;;;;;3.85;1.10;;;;;;;10.79;75.84;93345.09;5073876;28;20570;-74
2022/11/21 04:01:14;;;;;;;5.85;1.20;;;;;;;10.68;76.78;93341.84;5057312;28;20065;-74
2022/11/21 04:03:43;;;;;;;4.88;1.45;;;;;;;10.40;77.90;93327.56;5090812;28;20028;-74
2022/11/21 04:06:10;;;;;;;6.22;2.63;;;;;;;10.44;77.68;93321.06;5090764;28;20132;-74
2022/11/21 04:08:35;;;;;;;4.32;1.25;;;;;;;10.28;76.39;93324.50;5094200;28;20032;-74
2022/11/21 04:11:00;;;;;;;4.18;1.52;;;;;;;10.34;75.68;93304.88;5090490;28;20513;-74
2022/11/21 04:13:26;;;;;;;3.50;1.50;;;;;;;10.52;76.71;93313.28;5090635;28;20096;-74
2022/11/21 04:15:51;;;;;;;3.90;1.25;;;;;;;10.07;76.36;93283.41;5090559;28;20414;-74
2022/11/21 04:18:17;;;;;;;6.07;2.30;;;;;;;10.41;77.26;93313.63;5073584;28;20044;-74
2022/11/21 04:20:42;;;;;;;3.72;1.60;;;;;;;10.56;76.94;93303.38;5090524;28;20028;-74
2022/11/21 04:23:09;;;;;;;6.68;1.58;;;;;;;10.59;77.53;93309.06;5073743;28;20147;-74
2022/11/21 04:25:34;;;;;;;4.57;1.50;;;;;;;10.64;77.39;93311.16;5090450;28;20525;-74
2022/11/21 04:28:00;;;;;;;6.63;1.80;;;;;;;10.44;78.28;93306.31;5090143;28;20033;-74
2022/11/21 04:30:26;;;;;;;5.50;1.73;;;;;;;10.50;78.21;93310.88;5090296;28;20099;-74
2022/11/21 04:32:52;;;;;;;6.95;1.85;;;;;;;10.52;78.19;93308.09;5072982;28;20107;-74
2022/11/21 04:35:18;;;;;;;9.43;2.30;;;;;;;10.41;78.87;93326.59;5073335;28;20051;-74
2022/11/21 04:37:44;;;;;;;6.30;2.08;;;;;;;10.50;78.45;93320.41;5092854;28;20509;-74
2022/11/21 04:40:10;;;;;;;4.60;1.67;;;;;;;10.47;78.40;93323.34;5090047;28;20516;-74
2022/11/21 04:42:36;;;;;;;5.03;1.65;;;;;;;10.39;78.75;93323.34;5108238;28;20035;-74
2022/11/21 04:45:01;;;;;;;6.38;1.98;;;;;;;10.32;78.39;93327.56;5102978;28;20040;-74
2022/11/21 04:47:27;;;;;;;5.13;1.73;;;;;;;10.11;78.98;93341.78;5108399;28;20421;-74
2022/11/21 04:49:52;;;;;;;2.63;1.58;;;;;;;10.28;78.32;93345.25;5105818;27;20042;-74
2022/11/21 04:52:17;;;;;;;6.38;1.67;;;;;;;10.29;78.41;93349.47;5087813;28;20035;-74
2022/11/21 04:54:43;;;;;;;5.82;1.30;;;;;;;10.19;75.87;93339.19;5104092;28;20036;-74
2022/11/21 04:57:08;;;;;;;6.70;1.40;;;;;;;10.47;74.92;93365.72;5106413;28;20032;-74
2022/11/21 04:59:34;;;;;;;4.75;1.45;;;;;;;10.62;76.06;93378.84;5106435;28;20036;-74
2022/11/21 05:02:01;;;;;;;3.70;1.20;;;;;;;10.51;76.65;93372.19;5106288;28;20047;-74
2022/11/21 05:04:27;;;;;;;5.45;1.33;;;;;;;10.47;76.67;93375.25;5102059;27;20038;-74
2022/11/21 05:06:52;;;;;;;5.85;1.60;;;;;;;10.37;76.75;93361.66;5105622;28;20023;-74
2022/11/21 05:09:18;;;;;;;8.18;1.70;;;;;;;10.49;76.25;93386.31;5107782;27;20047;-74
2022/11/21 05:14:27;;;;;;;3.42;2.10;;;;;;;10.22;76.43;93379.59;5106357;28;20124;-74
2022/11/21 05:16:53;;;;;;;4.43;1.77;;;;;;;10.34;73.54;93390.53;5105928;28;20027;-74
2022/11/21 05:19:18;;;;;;;3.10;1.65;;;;;;;10.59;72.16;93378.38;5101387;28;20110;-74
2022/11/21 05:21:43;;;;;;;6.43;1.25;;;;;;;10.53;70.65;93398.00;5101828;28;20417;-74
2022/11/21 05:24:09;;;;;;;3.97;1.38;;;;;;;10.87;70.32;93433.41;5111856;28;20027;-73
2022/11/21 05:26:34;;;;;;;4.57;1.35;;;;;;;10.96;70.90;93398.66;5087907;28;20070;-74
2022/11/21 05:29:00;;;;;;;3.78;1.05;;;;;;;10.94;71.91;93404.00;5105832;28;20039;-74
2022/11/21 05:31:25;;;;;;;4.05;1.63;;;;;;;11.00;73.84;93409.53;5103300;28;20168;-74
2022/11/21 05:33:51;;;;;;;6.13;1.50;;;;;;;11.14;74.38;93404.50;5102979;28;20024;-74
2022/11/21 05:36:16;;;;;;;5.38;1.50;;;;;;;11.09;74.32;93405.97;5104169;28;20032;-74
2022/11/21 05:38:42;;;;;;;3.92;2.20;;;;;;;10.93;74.83;93404.19;5086006;28;20023;-73
2022/11/21 05:41:07;;;;;;;2.53;1.15;;;;;;;10.79;73.49;93410.84;5101641;28;20024;-74
2022/11/21 05:43:45;;;;;;;4.18;1.40;;;;;;;10.77;73.06;93399.78;5100776;28;21538;-74
2022/11/21 05:46:11;;;;;;;2.75;1.10;;;;;;;10.63;69.83;93406.44;5109493;28;20081;-73
2022/11/21 05:48:37;;;;;;;2.63;0.80;;;;;;;10.94;66.65;93421.38;5108763;27;20654;-74
2022/11/21 05:51:03;;;;;;;3.58;1.35;;;;;;;10.88;72.53;93390.88;5084028;28;20043;-74
2022/11/21 05:53:28;;;;;;;5.07;1.30;;;;;;;11.09;72.83;93413.75;5093291;28;20110;-74
2022/11/21 05:55:54;;;;;;;4.50;1.75;;;;;;;11.15;73.41;93428.69;5108437;28;20205;-74
2022/11/21 05:58:19;;;;;;;4.50;1.83;;;;;;;11.21;72.23;93427.22;5109388;27;20020;-74
2022/11/21 06:00:45;;;;;;;6.90;2.58;;;;;;;11.27;71.86;93449.97;5108619;28;20024;-74
2022/11/21 06:06:06;;;;;;;11.63;7.45;;;;;;;11.12;72.15;93447.22;5094645;28;20053;-74
2022/11/21 06:08:34;;;;;;;7.03;2.47;;;;;;;10.81;70.73;93452.22;5104193;27;20035;-74
2022/11/21 06:10:59;;;;;;;5.85;2.80;;;;;;;11.00;71.22;93483.09;5099789;28;20055;-74
2022/11/21 06:13:25;;;;;;;5.07;2.60;;;;;;;10.93;71.78;93505.50;5088828;28;20103;-74
2022/11/21 06:15:58;;;;;;;3.97;2.50;;;;;;;10.89;71.53;93517.19;5091527;28;20118;-74
2022/11/21 06:18:23;;;;;;;5.28;2.25;;;;;;;10.74;70.48;93498.81;5104756;28;20035;-74
2022/11/21 06:20:49;;;;;;;6.50;2.30;;;;;;;10.68;70.76;93504.66;5088062;28;20485;-73
2022/11/21 06:23:14;;;;;;;4.00;2.05;;;;;;;10.79;70.59;93550.31;5090391;28;20016;-74
2022/11/21 06:25:40;;;;;;;6.22;4.50;;;;;;;10.75;71.19;93547.19;5087792;28;20047;-74
2022/11/21 06:28:06;;;;;;;7.85;3.22;;;;;;;10.51;71.76;93538.38;5106376;27;20027;-74
2022/11/21 06:30:32;;;;;;;9.25;2.72;;;;;;;10.27;73.13;93539.09;5107007;28;20035;-74
2022/11/21 06:32:57;;;;;;;5.03;2.28;;;;;;;10.34;72.62;93525.50;5103799;28;20030;-74
2022/11/21 06:35:23;;;;;;;4.63;2.33;;;;;;;10.09;73.16;93525.38;5101326;28;20379;-74
2022/11/21 06:37:48;;;;;;;7.63;2.40;;;;;;;10.26;72.79;93557.41;5103518;28;20040;-74
2022/11/21 06:40:14;;;;;;;10.98;3.85;;;;;;;10.33;72.89;93567.97;5104192;28;20036;-74
2022/11/21 06:42:39;;;;;;;8.25;3.45;;;;;;;10.26;72.52;93570.38;5088586;28;20134;-73
2022/11/21 06:45:05;;;;;;;7.47;3.17;;;;;;;10.20;72.42;93574.41;5100828;28;20092;-74
2022/11/21 06:47:34;;;;;;;4.53;2.00;;;;;;;10.33;70.78;93583.56;5097910;28;20554;-72
2022/11/21 06:49:59;;;;;;;6.60;1.73;;;;;;;10.41;68.98;93581.00;5080852;28;20027;-72
2022/11/21 06:52:25;;;;;;;6.75;1.83;;;;;;;10.35;69.21;93597.19;5086478;28;20016;-72
2022/11/21 06:54:51;;;;;;;5.85;3.53;;;;;;;10.10;71.35;93602.22;5095884;28;20032;-72
2022/11/21 06:57:16;;;;;;;4.22;2.97;;;;;;;10.20;69.21;93608.13;5091586;28;20093;-73
2022/11/21 06:59:42;;;;;;;4.35;2.40;;;;;;;10.05;70.01;93627.81;5084620;28;20036;-72
2022/11/21 07:02:14;;;;;;;4.72;2.95;;;;;;;10.04;68.99;93631.38;5105063;28;20024;-72
2022/11/21 07:04:39;;;;;;;2.88;1.73;;;;;;;9.83;67.68;93639.50;5101078;27;20091;-73
2022/11/21 07:07:05;;;;;;;4.43;1.88;;;;;;;9.71;68.50;93662.25;5086334;28;20040;-72
2022/11/21 07:09:32;;;;;;;4.55;2.67;;;;;;;9.47;68.99;93680.19;5095449;28;20035;-72
2022/11/21 07:13:20;;;;;;;3.97;2.95;;;;;;;9.47;69.36;93698.34;5109964;28;20567;-72
2022/11/21 07:14:43;;;;;;;3.40;1.60;;;;;;;9.40;67.65;93696.34;5108255;28;20263;-72
2022/11/21 07:17:12;;;;;;;1.92;1.27;;;;;;;9.26;68.39;93709.81;5109353;28;20026;-72
2022/11/21 07:19:38;;;;;;;3.00;1.90;;;;;;;8.82;68.88;93699.25;5109286;28;20028;-73
2022/11/21 07:22:03;;;;;;;3.38;1.75;;;;;;;8.79;69.00;93701.34;5108244;28;20066;-72
2022/11/21 07:24:29;;;;;;;3.40;1.85;;;;;;;8.53;69.59;93719.28;5109576;28;20046;-72
2022/11/21 07:26:54;;;;;;;3.65;1.70;;;;;;;8.48;70.37;93732.66;5109763;28;20023;-72
2022/11/21 07:29:19;;;;;;;2.83;1.45;;;;;;;8.47;70.28;93734.41;5092803;28;20034;-72
2022/11/21 07:31:45;;;;;;;2.00;1.13;;;;;;;8.24;70.64;93733.06;5111083;28;20054;-72
2022/11/21 07:34:10;;;;;;;2.78;2.00;;;;;;;8.11;69.99;93738.56;5075469;28;20034;-72
2022/11/21 07:36:36;;;;;;;4.63;3.38;;;;;;;8.06;71.68;93767.41;5075267;28;20028;-72
2022/11/21 07:39:01;;;;;;;1.88;0.98;;;;;;;7.83;71.73;93756.53;5110526;28;20397;-72
2022/11/21 07:41:27;;;;;;;2.75;1.20;;;;;;;7.78;71.77;93747.56;5111865;28;20416;-72
2022/11/21 07:43:52;;;;;;;2.78;1.05;;;;;;;7.63;71.87;93770.38;5111429;28;20028;-72
2022/11/21 07:46:18;;;;;;;1.63;0.82;;;;;;;7.52;72.27;93779.09;5111749;28;20046;-72
2022/11/21 07:48:43;;;;;;;2.95;1.90;;;;;;;7.50;72.22;93788.75;5111426;28;20404;-72
2022/11/21 07:51:09;;;;;;;3.42;1.80;;;;;;;7.48;72.27;93788.06;5113092;28;20028;-72
2022/11/21 07:53:35;;;;;;;2.00;1.20;;;;;;;7.52;72.00;93779.09;5111324;28;20027;-72
2022/11/21 07:56:01;;;;;;;2.67;1.23;;;;;;;7.32;72.45;93780.00;5112887;28;20120;-72
2022/11/21 07:58:26;;;;;;;2.35;1.42;;;;;;;7.51;72.00;93792.13;5111211;28;20032;-72
2022/11/21 08:00:52;;;;;;;2.00;1.00;;;;;;;7.46;71.87;93794.31;5111367;28;20036;-72
2022/11/21 08:03:18;;;;;;;2.25;1.20;;;;;;;7.17;72.04;93779.56;5094212;28;20024;-72
2022/11/21 08:05:44;;;;;;;4.45;1.10;;;;;;;7.21;72.01;93816.25;5111283;28;20024;-72
2022/11/21 08:08:10;;;;;;;1.83;1.13;;;;;;;7.13;72.13;93820.31;5110231;28;20386;-72
2022/11/21 08:10:37;;;;;;;2.13;0.98;;;;;;;7.16;72.29;93839.91;5094030;28;20507;-72
2022/11/21 08:13:02;;;;;;;3.22;1.98;;;;;;;7.01;72.64;93851.53;5094194;28;20028;-72
2022/11/21 08:15:28;;;;;;;2.35;1.52;;;;;;;6.80;72.33;93842.06;5094090;28;20042;-72
2022/11/21 08:17:53;;;;;;;1.77;1.00;;;;;;;6.75;71.61;93851.94;5110814;28;20028;-72
2022/11/21 08:20:19;;;;;;;2.00;1.33;;;;;;;6.90;71.47;93849.84;5112213;28;20043;-72
2022/11/21 08:22:44;;;;;;;1.98;1.27;;;;;;;6.85;72.71;93855.41;5110775;28;20024;-72
2022/11/21 08:25:09;;;;;;;2.33;1.20;;;;;;;6.81;72.95;93861.75;5110670;28;20043;-72
2022/11/21 08:27:37;;;;;;;2.20;1.30;;;;;;;6.53;73.86;93841.75;5093795;28;20028;-72
2022/11/21 08:30:04;;;;;;;2.17;1.00;;;;;;;6.63;73.00;93855.50;5093928;28;20039;-72
2022/11/21 08:32:30;;;;;;;2.53;1.55;;;;;;;6.54;73.99;93857.09;5110907;28;20054;-72
2022/11/21 08:34:55;;;;;;;2.22;1.60;;;;;;;6.71;73.54;93866.88;5093580;28;20493;-72
2022/11/21 08:37:21;;;;;;;3.33;1.33;;;;;;;6.58;72.93;93839.63;5111737;28;20039;-72
2022/11/21 08:39:46;;;;;;;1.98;1.23;;;;;;;6.81;71.66;93864.34;5110379;28;20023;-73
2022/11/21 08:42:12;;;;;;;3.33;2.22;;;;;;;6.82;72.34;93873.69;5111690;28;20020;-72
2022/11/21 08:44:38;;;;;;;2.47;1.60;;;;;;;6.80;73.09;93861.88;5111638;28;20031;-72
2022/11/21 08:47:05;;;;;;;2.33;1.63;;;;;;;6.99;73.36;93843.91;5110467;28;20041;-73
2022/11/21 08:49:30;;;;;;;3.35;2.40;;;;;;;6.95;72.56;93852.84;5111728;28;20028;-72
2022/11/21 08:51:56;;;;;;;2.58;1.90;;;;;;;6.90;73.13;93836.94;5110377;28;20409;-72
2022/11/21 08:54:22;;;;;;;2.35;1.40;;;;;;;6.99;72.71;93845.66;5110265;28;20024;-72
2022/11/21 08:56:48;;;;;;;2.25;1.50;;;;;;;6.93;72.91;93841.84;5110234;28;20022;-72
2022/11/21 08:59:14;;;;;;;2.08;1.40;;;;;;;7.13;73.52;93858.22;5110068;28;20047;-72
2022/11/21 09:01:40;;;;;;;3.90;2.88;;;;;;;7.07;72.33;93856.97;5110071;28;20034;-72
2022/11/21 09:04:05;;;;;;;2.92;1.83;;;;;;;7.18;72.28;93868.19;5110220;28;20058;-72
2022/11/21 09:06:31;;;;;;;4.10;2.40;;;;;;;7.08;72.04;93868.97;5110339;28;20150;-72
2022/11/21 09:08:56;;;;;;;3.03;2.20;;;;;;;6.90;72.72;93860.97;5109916;28;20019;-72
2022/11/21 09:11:23;;;;;;;3.15;1.60;;;;;;;6.74;72.45;93873.50;5093171;28;20090;-72
2022/11/21 09:18:01;;;;;;;2.67;1.70;;;;;;;6.75;71.72;93859.69;5111145;28;20485;-72
2022/11/21 09:19:20;;;;;;;4.05;2.40;;;;;;;6.70;72.60;93885.88;5114747;28;20035;-72
2022/11/21 09:21:47;;;;;;;3.88;2.33;;;;;;;6.66;72.37;93861.25;5099815;28;20024;-72
2022/11/21 09:24:13;;;;;;;3.70;2.00;;;;;;;6.82;70.98;93875.47;5099928;28;20035;-72
2022/11/21 09:26:38;;;;;;;4.47;2.10;;;;;;;6.79;72.00;93873.97;5116802;28;20429;-72
2022/11/21 09:29:04;;;;;;;4.57;1.90;;;;;;;6.81;71.32;93853.19;5117939;28;20024;-72
2022/11/21 09:31:29;;;;;;;4.88;2.42;;;;;;;7.04;70.63;93880.47;5117004;28;20040;-72
2022/11/21 09:33:55;;;;;;;3.08;1.85;;;;;;;7.06;70.95;93865.69;5116663;28;20027;-72
2022/11/21 09:36:20;;;;;;;5.38;3.20;;;;;;;7.10;71.51;93871.41;5118386;28;20447;-72
2022/11/21 09:38:45;;;;;;;4.57;2.80;;;;;;;7.03;71.60;93890.97;5116402;28;20386;-72
2022/11/21 09:41:50;;;;;;;3.17;2.17;;;;;;;7.22;69.37;93867.00;5118294;28;20046;-72
2022/11/21 09:44:25;;;;;;;3.28;1.95;;;;;;;7.15;70.40;93869.25;5116621;28;20048;-72
2022/11/21 09:46:54;;;;;;;3.75;2.40;;;;;;;7.09;70.43;93880.91;5117810;28;20093;-72
2022/11/21 09:49:20;;;;;;;4.65;2.20;;;;;;;7.12;71.13;93875.50;5116446;28;20019;-72
2022/11/21 09:51:46;;;;;;;5.72;2.42;;;;;;;7.19;70.22;93869.81;5083000;28;20027;-72
2022/11/21 09:54:22;;;;;;;3.80;2.58;;;;;;;7.32;68.56;93871.22;5099445;28;20455;-72
2022/11/21 09:56:47;;;;;;;3.85;2.80;;;;;;;7.31;69.22;93879.13;5100269;28;20023;-72
2022/11/21 09:59:35;;;;;;;4.45;3.03;;;;;;;7.28;69.90;93882.78;5116277;28;20028;-72
2022/11/21 10:02:01;;;;;;;4.53;2.78;;;;;;;7.01;71.07;93888.50;5116450;28;20390;-72
2022/11/21 10:04:26;;;;;;;5.35;2.50;;;;;;;6.97;70.75;93897.44;5082396;28;20020;-72
2022/11/21 10:06:54;;;;;;;4.32;2.40;;;;;;;7.06;69.81;93901.84;5116438;28;20035;-72
2022/11/21 10:09:32;;;;;;;4.78;2.38;;;;;;;6.88;71.64;93904.19;5117531;28;20106;-72
2022/11/21 10:12:38;;;;;;;5.50;2.75;;;;;;;7.04;70.41;93901.16;5116280;28;20051;-72
2022/11/21 10:15:11;;;;;;;4.30;2.88;;;;;;;6.97;70.98;93906.97;5117672;27;20035;-72
2022/11/21 10:17:45;;;;;;;3.25;2.33;;;;;;;6.99;70.69;93905.88;5116126;28;20054;-72
2022/11/21 10:20:26;;;;;;;3.85;2.33;;;;;;;6.96;72.12;93905.31;5117627;28;20039;-73
2022/11/21 10:23:09;;;;;;;3.15;2.08;;;;;;;6.94;72.29;93915.78;5117499;28;20378;-72
2022/11/21 10:25:37;;;;;;;5.82;3.13;;;;;;;6.98;71.88;93912.00;5117412;28;20038;-72
2022/11/21 10:28:44;;;;;;;3.50;2.65;;;;;;;6.91;73.45;93918.63;5082577;28;20434;-72
2022/11/21 10:31:10;;;;;;;3.92;2.40;;;;;;;6.91;71.25;93897.97;5105133;28;20040;-72
2022/11/21 10:33:39;;;;;;;3.88;2.10;;;;;;;6.91;71.35;93913.47;5079065;28;20076;-72
2022/11/21 10:36:24;;;;;;;4.53;2.90;;;;;;;6.66;73.48;93912.06;5096545;28;20038;-72
2022/11/21 10:38:50;;;;;;;5.15;2.10;;;;;;;6.65;73.29;93924.13;5112823;28;20040;-72
2022/11/21 10:41:24;;;;;;;5.90;3.10;;;;;;;6.38;72.73;93906.56;5095892;28;20056;-72
2022/11/21 10:46:40;;;;;;;31.23;20.80;;;;;;;6.80;70.96;93914.34;5114222;28;20081;-73
2022/11/21 10:49:09;;;;;;;58.25;35.60;;;;;;;6.85;71.58;93913.94;5095780;28;20444;-72
2022/11/21 10:51:59;;;;;;;46.60;24.45;;;;;;;6.88;71.54;93906.78;5078591;28;20112;-72
2022/11/21 10:54:34;;;;;;;34.60;17.10;;;;;;;6.85;71.51;93901.88;5112708;28;20027;-72
2022/11/21 10:57:17;;;;;;;104.45;46.40;;;;;;;6.90;70.96;93909.22;5114089;28;20099;-73
2022/11/21 11:00:18;;;;;;;29.80;15.07;;;;;;;6.83;72.03;93902.94;5112357;28;20032;-72
2022/11/21 11:02:57;;;;;;;8.45;4.35;;;;;;;6.70;73.54;93900.53;5080276;28;20092;-72
2022/11/21 11:05:23;;;;;;;7.43;5.13;;;;;;;6.71;73.24;93903.00;5113814;28;20069;-72
2022/11/21 11:08:04;;;;;;;9.82;4.72;;;;;;;6.62;72.81;93919.22;5112286;28;20032;-72
2022/11/21 11:10:31;;;;;;;5.65;3.80;;;;;;;6.52;72.50;93915.78;5113551;28;20035;-73
2022/11/21 11:16:06;;;;;;;6.68;4.15;;;;;;;6.19;73.94;93917.53;5098019;28;20046;-72
2022/11/21 11:18:37;;;;;;;5.78;4.10;;;;;;;6.31;73.75;93920.06;5112026;28;20034;-72
2022/11/21 11:21:20;;;;;;;6.97;4.38;;;;;;;6.48;73.33;93912.59;5112185;28;20459;-72
2022/11/21 11:23:47;;;;;;;6.22;5.10;;;;;;;6.50;73.81;93912.50;5095134;28;20011;-72
2022/11/21 11:26:20;;;;;;;5.22;3.78;;;;;;;6.54;73.88;93910.47;5095441;28;20043;-72
2022/11/21 11:28:45;;;;;;;4.95;3.65;;;;;;;6.34;73.75;93901.78;5113401;28;20020;-72
2022/11/21 11:31:11;;;;;;;4.65;3.83;;;;;;;6.40;73.76;93907.25;5094974;28;20081;-72
2022/11/21 11:33:37;;;;;;;4.15;3.17;;;;;;;6.48;73.58;93911.78;5111751;28;20019;-72
2022/11/21 11:36:36;;;;;;;4.32;3.28;;;;;;;6.69;73.06;93914.41;5113378;28;20110;-72
2022/11/21 11:39:10;;;;;;;7.15;5.28;;;;;;;6.84;71.76;93910.53;5103525;28;20051;-72
2022/11/21 11:47:57;;;;;;;4.20;3.30;;;;;;;6.81;71.20;93902.25;5112174;28;20039;-72
2022/11/21 11:50:45;;;;;;;4.63;3.45;;;;;;;6.67;71.48;93899.03;5111413;28;20421;-72
2022/11/21 11:53:10;;;;;;;4.65;3.92;;;;;;;6.57;71.51;93905.06;5111443;28;20035;-72
2022/11/21 11:55:43;;;;;;;4.35;3.22;;;;;;;6.47;72.05;93905.00;5111475;28;20036;-73
2022/11/21 11:58:23;;;;;;;4.90;3.60;;;;;;;6.44;72.38;93921.53;5111256;28;20028;-72
2022/11/21 12:00:54;;;;;;;4.90;3.60;;;;;;;6.36;72.99;93912.78;5111443;28;20035;-72